Time;durP1;ratioP1;P1;durP2;ratioP2;P2;SDS_P1;SDS_P2;PMS_P1;PMS_P2;Temp;Humidity;BMP_temperature;BMP_pressure;BME280_temperature;BME280_humidity;BME280_pressure;Samples;Min_cycle;Max_cycle;Signal;HPM_P1;HPM_P2
2023/04/17 00:01:06;;;;;;;38.00;25.95;;;;;;;;;;5072652;28;20024;-64
2023/04/17 00:03:32;;;;;;;43.15;24.70;;;;;;;;;;5073383;28;20483;-64
2023/04/17 00:05:57;;;;;;;39.60;24.55;;;;;;;;;;5078574;28;20027;-64
2023/04/17 00:08:23;;;;;;;28.65;22.92;;;;;;;;;;5081870;28;20149;-64
2023/04/17 00:10:48;;;;;;;36.58;25.02;;;;;;;;;;5078471;28;20038;-64
2023/04/17 00:13:13;;;;;;;42.33;25.73;;;;;;;;;;5081400;28;20028;-64
2023/04/17 00:15:39;;;;;;;30.85;23.80;;;;;;;;;;5072305;28;20016;-64
2023/04/17 00:18:04;;;;;;;31.08;23.25;;;;;;;;;;5077497;28;20034;-65
2023/04/17 00:20:29;;;;;;;32.00;24.20;;;;;;;;;;5074645;28;20020;-64
2023/04/17 00:22:55;;;;;;;35.45;24.88;;;;;;;;;;5072989;28;20024;-64
2023/04/17 00:25:20;;;;;;;29.90;24.67;;;;;;;;;;5073262;28;20429;-64
2023/04/17 00:27:46;;;;;;;32.60;22.83;;;;;;;;;;5072815;28;20108;-64
2023/04/17 00:30:11;;;;;;;37.10;25.55;;;;;;;;;;5081878;28;20020;-64
2023/04/17 00:32:36;;;;;;;33.63;25.50;;;;;;;;;;5076812;28;20074;-64
2023/04/17 00:35:02;;;;;;;34.00;23.83;;;;;;;;;;5072681;28;20028;-64
2023/04/17 00:37:27;;;;;;;33.03;23.33;;;;;;;;;;5081292;28;20035;-64
2023/04/17 00:39:52;;;;;;;41.17;25.65;;;;;;;;;;5073667;28;20352;-64
2023/04/17 00:42:18;;;;;;;37.75;26.02;;;;;;;;;;5074001;28;20026;-64
2023/04/17 00:44:43;;;;;;;41.08;25.77;;;;;;;;;;5073227;28;20368;-64
2023/04/17 00:47:08;;;;;;;29.48;24.05;;;;;;;;;;5072274;28;20037;-64
2023/04/17 00:49:34;;;;;;;33.38;24.15;;;;;;;;;;5072789;28;20020;-64
2023/04/17 00:52:00;;;;;;;33.50;23.90;;;;;;;;;;5083698;28;20023;-64
2023/04/17 00:54:25;;;;;;;36.17;24.70;;;;;;;;;;5088337;28;20471;-64
2023/04/17 00:56:52;;;;;;;32.85;24.20;;;;;;;;;;5074727;28;20360;-64
2023/04/17 00:59:18;;;;;;;36.45;26.15;;;;;;;;;;5073740;28;20024;-64
2023/04/17 01:01:43;;;;;;;34.10;24.08;;;;;;;;;;5069549;28;20926;-64
2023/04/17 01:04:08;;;;;;;39.28;27.42;;;;;;;;;;5072804;28;20024;-64
2023/04/17 01:06:34;;;;;;;34.05;25.98;;;;;;;;;;5072601;28;20115;-64
2023/04/17 01:08:59;;;;;;;31.95;25.25;;;;;;;;;;5072953;28;20103;-64
2023/04/17 01:11:25;;;;;;;43.00;27.88;;;;;;;;;;5072460;28;20103;-64
2023/04/17 01:13:50;;;;;;;33.95;27.33;;;;;;;;;;5078699;28;20111;-64
2023/04/17 01:16:16;;;;;;;36.47;25.77;;;;;;;;;;5071573;28;20103;-65
2023/04/17 01:18:41;;;;;;;36.05;25.80;;;;;;;;;;5072390;28;20025;-64
2023/04/17 01:21:07;;;;;;;36.88;27.02;;;;;;;;;;5072026;28;20021;-64
2023/04/17 01:23:41;;;;;;;37.95;26.95;;;;;;;;;;5071540;28;20059;-64
2023/04/17 01:29:09;;;;;;;38.67;28.08;;;;;;;;;;5036221;28;20158;-65
2023/04/17 01:31:35;;;;;;;38.50;26.67;;;;;;;;;;5043397;28;20115;-64
2023/04/17 01:34:00;;;;;;;37.88;27.02;;;;;;;;;;5038536;28;20993;-65
2023/04/17 01:36:26;;;;;;;38.70;27.65;;;;;;;;;;5043633;28;20881;-65
2023/04/17 01:38:51;;;;;;;45.13;29.65;;;;;;;;;;5036178;28;20134;-64
2023/04/17 01:41:17;;;;;;;35.20;28.08;;;;;;;;;;5033134;28;20165;-64
2023/04/17 01:43:43;;;;;;;40.03;29.33;;;;;;;;;;5031263;28;20044;-64
2023/04/17 01:46:08;;;;;;;41.60;28.08;;;;;;;;;;5029229;28;20028;-64
2023/04/17 01:48:34;;;;;;;44.22;29.48;;;;;;;;;;5030136;28;20887;-65
2023/04/17 01:50:59;;;;;;;44.05;28.35;;;;;;;;;;5030474;28;20082;-65
2023/04/17 01:53:25;;;;;;;36.22;28.35;;;;;;;;;;5032627;28;20131;-65
2023/04/17 01:55:50;;;;;;;39.58;29.23;;;;;;;;;;5036075;28;20062;-65
2023/04/17 01:58:18;;;;;;;35.25;27.55;;;;;;;;;;5022357;28;20784;-65
2023/04/17 02:00:47;;;;;;;40.47;27.52;;;;;;;;;;5046164;28;20908;-64
2023/04/17 02:03:13;;;;;;;36.75;28.83;;;;;;;;;;5017097;28;20032;-64
2023/04/17 02:05:38;;;;;;;40.70;29.00;;;;;;;;;;5031893;28;20023;-64
2023/04/17 02:08:04;;;;;;;36.13;27.05;;;;;;;;;;5041650;28;20031;-64
2023/04/17 02:10:29;;;;;;;34.30;26.38;;;;;;;;;;5034677;28;20858;-64
2023/04/17 02:12:54;;;;;;;37.83;27.58;;;;;;;;;;5034270;28;20246;-64
2023/04/17 02:15:20;;;;;;;41.17;27.23;;;;;;;;;;5038255;28;20028;-64
2023/04/17 02:17:45;;;;;;;42.00;27.17;;;;;;;;;;5033791;28;20032;-64
2023/04/17 02:20:11;;;;;;;39.42;27.35;;;;;;;;;;5035627;28;20028;-64
2023/04/17 02:22:36;;;;;;;35.85;26.30;;;;;;;;;;5032752;28;20082;-64
2023/04/17 02:25:02;;;;;;;30.38;25.23;;;;;;;;;;5038541;28;20016;-64
2023/04/17 02:27:28;;;;;;;37.83;26.38;;;;;;;;;;5035214;28;20052;-64
2023/04/17 02:29:54;;;;;;;36.22;25.48;;;;;;;;;;5035528;28;20035;-64
2023/04/17 02:32:19;;;;;;;37.20;26.13;;;;;;;;;;5041112;28;20046;-64
2023/04/17 02:34:44;;;;;;;32.92;25.95;;;;;;;;;;5036353;28;20020;-64
2023/04/17 02:37:09;;;;;;;44.85;27.08;;;;;;;;;;5039961;28;20024;-64
2023/04/17 02:39:35;;;;;;;32.72;24.40;;;;;;;;;;5032280;28;20016;-65
2023/04/17 02:42:01;;;;;;;37.58;26.60;;;;;;;;;;5050395;28;20055;-65
2023/04/17 02:44:27;;;;;;;34.25;24.55;;;;;;;;;;5074959;28;20016;-64
2023/04/17 02:46:52;;;;;;;38.08;27.40;;;;;;;;;;5074924;28;20425;-64
2023/04/17 02:49:17;;;;;;;37.00;26.75;;;;;;;;;;5074081;28;20032;-64
2023/04/17 02:51:43;;;;;;;35.10;25.45;;;;;;;;;;5074270;28;20024;-64
2023/04/17 02:54:08;;;;;;;33.08;25.73;;;;;;;;;;5074322;28;20024;-64
2023/04/17 02:56:33;;;;;;;34.60;26.33;;;;;;;;;;5074647;28;20118;-64
2023/04/17 02:58:58;;;;;;;32.83;26.23;;;;;;;;;;5074730;28;20016;-64
2023/04/17 03:01:25;;;;;;;31.52;25.42;;;;;;;;;;5073984;28;20024;-64
2023/04/17 03:03:51;;;;;;;38.33;25.35;;;;;;;;;;5076580;28;20091;-64
2023/04/17 03:06:16;;;;;;;40.13;25.52;;;;;;;;;;5071354;28;20029;-64
2023/04/17 03:08:42;;;;;;;35.00;25.63;;;;;;;;;;5074435;28;20481;-64
2023/04/17 03:11:07;;;;;;;31.65;22.77;;;;;;;;;;5073967;28;20174;-64
2023/04/17 03:13:35;;;;;;;28.88;23.52;;;;;;;;;;5086233;28;20033;-64
2023/04/17 03:16:00;;;;;;;34.85;26.30;;;;;;;;;;5074219;28;20025;-64
2023/04/17 03:18:25;;;;;;;39.15;26.23;;;;;;;;;;5074418;28;20386;-64
2023/04/17 03:20:51;;;;;;;34.50;25.48;;;;;;;;;;5073287;28;20032;-64
2023/04/17 03:23:16;;;;;;;30.48;23.83;;;;;;;;;;5071575;28;20051;-65
2023/04/17 03:25:42;;;;;;;39.15;24.73;;;;;;;;;;5073318;28;20098;-65
2023/04/17 03:28:07;;;;;;;32.90;23.73;;;;;;;;;;5073902;28;20060;-64
2023/04/17 03:30:32;;;;;;;39.75;24.02;;;;;;;;;;5085521;28;20451;-64
2023/04/17 03:32:57;;;;;;;32.10;24.05;;;;;;;;;;5087025;28;20020;-65
2023/04/17 03:35:23;;;;;;;33.78;24.80;;;;;;;;;;5074275;28;20036;-64
2023/04/17 03:37:49;;;;;;;30.13;23.50;;;;;;;;;;5069553;28;20080;-65
2023/04/17 03:40:14;;;;;;;34.65;25.35;;;;;;;;;;5073958;28;20028;-65
2023/04/17 03:42:39;;;;;;;37.72;25.83;;;;;;;;;;5056264;28;20471;-65
2023/04/17 03:45:05;;;;;;;36.60;26.00;;;;;;;;;;5074564;28;20383;-65
2023/04/17 03:47:30;;;;;;;37.58;28.25;;;;;;;;;;5076614;28;20028;-65
2023/04/17 03:49:56;;;;;;;37.65;27.33;;;;;;;;;;5074835;28;20403;-65
2023/04/17 03:52:21;;;;;;;33.08;26.25;;;;;;;;;;5073460;28;20027;-65
2023/04/17 03:54:48;;;;;;;38.90;26.73;;;;;;;;;;5080725;28;20020;-64
2023/04/17 03:57:13;;;;;;;36.17;27.52;;;;;;;;;;5076789;28;20028;-64
2023/04/17 03:59:38;;;;;;;39.92;29.60;;;;;;;;;;5071011;28;20047;-65
2023/04/17 04:02:04;;;;;;;44.20;28.45;;;;;;;;;;5077259;28;20024;-64
2023/04/17 04:04:29;;;;;;;40.75;28.23;;;;;;;;;;5073723;28;20100;-64
2023/04/17 04:06:56;;;;;;;46.25;30.30;;;;;;;;;;5073169;28;20020;-64
2023/04/17 04:09:21;;;;;;;39.45;29.30;;;;;;;;;;5073686;28;20016;-64
2023/04/17 04:11:46;;;;;;;38.03;29.52;;;;;;;;;;5073823;28;20099;-65
2023/04/17 04:14:12;;;;;;;44.78;30.30;;;;;;;;;;5074032;28;20032;-64
2023/04/17 04:16:37;;;;;;;42.33;29.52;;;;;;;;;;5072894;28;20482;-65
2023/04/17 04:19:02;;;;;;;45.72;30.80;;;;;;;;;;5072552;28;20028;-65
2023/04/17 04:21:29;;;;;;;45.97;31.35;;;;;;;;;;5072545;28;20494;-65
2023/04/17 04:23:55;;;;;;;44.33;31.58;;;;;;;;;;5068321;28;20087;-65
2023/04/17 04:26:20;;;;;;;51.58;32.17;;;;;;;;;;5074651;28;20479;-65
2023/04/17 04:28:46;;;;;;;47.05;32.95;;;;;;;;;;5080737;28;20028;-65
2023/04/17 04:31:13;;;;;;;43.70;31.98;;;;;;;;;;5085643;28;20033;-65
2023/04/17 04:33:38;;;;;;;43.13;32.60;;;;;;;;;;5072960;28;20025;-64
2023/04/17 04:36:04;;;;;;;46.35;32.88;;;;;;;;;;5064349;28;20494;-65
2023/04/17 04:38:29;;;;;;;52.70;34.83;;;;;;;;;;5072774;28;20056;-64
2023/04/17 04:41:00;;;;;;;54.33;33.13;;;;;;;;;;5085594;28;20047;-65
2023/04/17 04:43:27;;;;;;;53.85;33.97;;;;;;;;;;5072842;28;20463;-65
2023/04/17 04:45:52;;;;;;;45.70;34.25;;;;;;;;;;5066305;28;20039;-64
2023/04/17 04:48:18;;;;;;;50.13;34.28;;;;;;;;;;5062613;28;20394;-64
2023/04/17 04:50:43;;;;;;;45.05;33.15;;;;;;;;;;5086621;28;20120;-64
2023/04/17 04:53:09;;;;;;;55.25;35.90;;;;;;;;;;5048649;28;20029;-64
2023/04/17 04:55:34;;;;;;;57.80;35.65;;;;;;;;;;5080273;28;20017;-64
2023/04/17 04:57:59;;;;;;;48.45;34.60;;;;;;;;;;5072755;28;20043;-65
2023/04/17 05:00:25;;;;;;;58.58;36.42;;;;;;;;;;5071007;28;20056;-65
2023/04/17 05:02:50;;;;;;;51.97;36.42;;;;;;;;;;5072785;28;20085;-65
2023/04/17 05:05:15;;;;;;;53.78;37.05;;;;;;;;;;5072448;28;20035;-65
2023/04/17 05:07:41;;;;;;;56.80;38.70;;;;;;;;;;5073023;28;20027;-65
2023/04/17 05:10:06;;;;;;;53.97;37.05;;;;;;;;;;5075674;28;20034;-65
2023/04/17 05:12:33;;;;;;;49.40;38.05;;;;;;;;;;5080914;28;20036;-65
2023/04/17 05:14:59;;;;;;;54.05;38.15;;;;;;;;;;5072727;28;20280;-65
2023/04/17 05:17:24;;;;;;;51.85;37.40;;;;;;;;;;5071574;28;20076;-65
2023/04/17 05:19:50;;;;;;;60.90;37.88;;;;;;;;;;5072476;28;20024;-64
2023/04/17 05:22:15;;;;;;;53.53;38.88;;;;;;;;;;5067821;28;20154;-64
2023/04/17 05:24:40;;;;;;;58.60;39.90;;;;;;;;;;5071389;28;20020;-64
2023/04/17 05:27:06;;;;;;;53.78;38.50;;;;;;;;;;5071390;28;20024;-64
2023/04/17 05:29:31;;;;;;;58.15;38.47;;;;;;;;;;5070256;28;20086;-64
2023/04/17 05:31:57;;;;;;;58.65;40.83;;;;;;;;;;5081567;28;20028;-64
2023/04/17 05:34:22;;;;;;;53.42;38.63;;;;;;;;;;5072164;28;20024;-65
2023/04/17 05:36:47;;;;;;;60.50;40.95;;;;;;;;;;5071581;28;20028;-65
2023/04/17 05:39:12;;;;;;;53.33;38.40;;;;;;;;;;5072657;28;20039;-65
2023/04/17 05:41:38;;;;;;;56.92;38.90;;;;;;;;;;5073322;28;20433;-64
2023/04/17 05:44:03;;;;;;;65.35;40.95;;;;;;;;;;5084938;28;20032;-65
2023/04/17 05:46:28;;;;;;;61.08;43.25;;;;;;;;;;5066836;28;20031;-64
2023/04/17 05:48:53;;;;;;;60.03;43.60;;;;;;;;;;5052857;28;20103;-64
2023/04/17 05:51:19;;;;;;;66.95;42.67;;;;;;;;;;5071726;28;20459;-65
2023/04/17 05:53:45;;;;;;;66.82;44.50;;;;;;;;;;5071703;28;20111;-64
2023/04/17 05:56:10;;;;;;;76.32;45.17;;;;;;;;;;5071756;28;20020;-64
2023/04/17 05:58:35;;;;;;;68.82;43.50;;;;;;;;;;5071893;28;20463;-64
2023/04/17 06:01:01;;;;;;;63.20;42.92;;;;;;;;;;5072081;28;20020;-64
2023/04/17 06:03:26;;;;;;;62.28;42.75;;;;;;;;;;5055198;28;20020;-65
2023/04/17 06:05:51;;;;;;;62.80;42.42;;;;;;;;;;5042643;28;20024;-65
2023/04/17 06:08:17;;;;;;;67.00;45.72;;;;;;;;;;5042611;28;20589;-64
2023/04/17 06:10:44;;;;;;;76.18;45.67;;;;;;;;;;5043466;28;20016;-64
2023/04/17 06:13:10;;;;;;;62.90;44.20;;;;;;;;;;5038295;28;20032;-64
2023/04/17 06:15:35;;;;;;;65.50;44.20;;;;;;;;;;5035977;28;20139;-65
2023/04/17 06:18:00;;;;;;;73.70;49.58;;;;;;;;;;5041407;28;20797;-64
2023/04/17 06:20:25;;;;;;;68.95;47.35;;;;;;;;;;5039474;28;20786;-65
2023/04/17 06:22:51;;;;;;;76.40;48.83;;;;;;;;;;5043965;28;20027;-65
2023/04/17 06:25:17;;;;;;;78.15;49.88;;;;;;;;;;5039158;28;20881;-65
2023/04/17 06:27:42;;;;;;;82.90;51.30;;;;;;;;;;5049264;28;20035;-64
2023/04/17 06:30:07;;;;;;;73.70;49.22;;;;;;;;;;5048150;28;20029;-64
2023/04/17 06:32:33;;;;;;;82.45;50.75;;;;;;;;;;5051057;28;20102;-64
2023/04/17 06:34:58;;;;;;;73.47;48.22;;;;;;;;;;5041242;28;20930;-65
2023/04/17 06:37:23;;;;;;;82.25;48.10;;;;;;;;;;5046719;28;20028;-65
2023/04/17 06:39:48;;;;;;;74.22;46.20;;;;;;;;;;5030152;28;20032;-65
2023/04/17 06:42:15;;;;;;;77.55;52.00;;;;;;;;;;5058155;28;20028;-64
2023/04/17 06:44:40;;;;;;;74.80;50.47;;;;;;;;;;5048122;28;20023;-64
2023/04/17 06:47:06;;;;;;;78.18;51.15;;;;;;;;;;5068823;28;20017;-64
2023/04/17 06:49:31;;;;;;;79.75;49.97;;;;;;;;;;5056793;28;20024;-64
2023/04/17 06:51:57;;;;;;;73.50;50.55;;;;;;;;;;5043316;28;20027;-64
2023/04/17 06:54:22;;;;;;;67.57;49.83;;;;;;;;;;5046045;28;20133;-65
2023/04/17 06:56:48;;;;;;;79.07;50.38;;;;;;;;;;5044944;28;20881;-64
2023/04/17 06:59:13;;;;;;;73.32;50.17;;;;;;;;;;5042350;28;20395;-64
2023/04/17 07:01:39;;;;;;;83.93;51.72;;;;;;;;;;5054610;28;20025;-64
2023/04/17 07:04:04;;;;;;;80.95;51.70;;;;;;;;;;5051522;28;20101;-63
2023/04/17 07:06:32;;;;;;;81.22;52.17;;;;;;;;;;5030791;28;20063;-64
2023/04/17 07:08:57;;;;;;;67.22;47.83;;;;;;;;;;5033100;28;20067;-63
2023/04/17 07:11:23;;;;;;;72.30;48.63;;;;;;;;;;5055472;28;20135;-64
2023/04/17 07:13:48;;;;;;;75.35;48.40;;;;;;;;;;5071957;28;20482;-63
2023/04/17 07:16:13;;;;;;;67.72;47.78;;;;;;;;;;5052285;28;20066;-63
2023/04/17 07:18:38;;;;;;;67.30;47.88;;;;;;;;;;5043031;28;20035;-63
2023/04/17 07:21:04;;;;;;;69.20;46.50;;;;;;;;;;5033196;28;20841;-63
2023/04/17 07:23:30;;;;;;;60.47;44.80;;;;;;;;;;5042546;28;20012;-63
2023/04/17 07:25:55;;;;;;;74.95;44.78;;;;;;;;;;5046767;28;20023;-64
2023/04/17 07:28:20;;;;;;;59.92;42.70;;;;;;;;;;5042242;28;20846;-63
2023/04/17 07:30:46;;;;;;;61.20;42.50;;;;;;;;;;5031721;28;20452;-64
2023/04/17 07:33:11;;;;;;;55.55;41.88;;;;;;;;;;5035150;28;20052;-63
2023/04/17 07:35:36;;;;;;;66.78;43.75;;;;;;;;;;5033368;28;20131;-63
2023/04/17 07:38:03;;;;;;;52.22;39.97;;;;;;;;;;5034045;28;20021;-63
2023/04/17 07:40:28;;;;;;;52.17;40.10;;;;;;;;;;5032208;28;20839;-63
2023/04/17 07:42:55;;;;;;;59.15;41.25;;;;;;;;;;5036403;28;20035;-63
2023/04/17 07:45:20;;;;;;;55.80;41.00;;;;;;;;;;5035346;28;20012;-63
2023/04/17 07:47:46;;;;;;;59.20;42.20;;;;;;;;;;5062572;28;20499;-63
2023/04/17 07:50:11;;;;;;;48.97;37.60;;;;;;;;;;5077941;28;20414;-63
2023/04/17 07:52:36;;;;;;;49.40;35.95;;;;;;;;;;5073038;28;20027;-63
2023/04/17 07:55:02;;;;;;;52.15;38.42;;;;;;;;;;5073174;28;20059;-63
2023/04/17 07:57:27;;;;;;;53.30;38.70;;;;;;;;;;5072378;28;20040;-63
2023/04/17 07:59:52;;;;;;;56.65;40.00;;;;;;;;;;5072985;28;20463;-63
2023/04/17 08:02:18;;;;;;;47.28;36.08;;;;;;;;;;5069599;28;20108;-63
2023/04/17 08:04:43;;;;;;;48.47;37.00;;;;;;;;;;5073583;28;20025;-63
2023/04/17 08:07:10;;;;;;;54.00;38.78;;;;;;;;;;5052213;28;20086;-64
2023/04/17 08:09:36;;;;;;;47.50;38.28;;;;;;;;;;5059646;28;20089;-63
2023/04/17 08:12:01;;;;;;;45.10;35.88;;;;;;;;;;5070141;28;20021;-63
2023/04/17 08:14:26;;;;;;;54.08;38.65;;;;;;;;;;5073534;28;20490;-63
2023/04/17 08:16:52;;;;;;;50.70;38.65;;;;;;;;;;5061080;28;20035;-64
2023/04/17 08:19:17;;;;;;;45.70;37.97;;;;;;;;;;5073099;28;20471;-63
2023/04/17 08:21:42;;;;;;;51.17;38.10;;;;;;;;;;5072485;28;20024;-63
2023/04/17 08:24:08;;;;;;;48.75;35.78;;;;;;;;;;5073112;28;20392;-63
2023/04/17 08:26:33;;;;;;;53.47;36.53;;;;;;;;;;5072949;28;20105;-63
2023/04/17 08:29:03;;;;;;;62.63;37.85;;;;;;;;;;5072963;28;20074;-63
2023/04/17 08:31:28;;;;;;;52.38;37.03;;;;;;;;;;5086145;28;20402;-63
2023/04/17 08:33:54;;;;;;;50.50;35.75;;;;;;;;;;5083250;28;20038;-63
2023/04/17 08:36:19;;;;;;;41.58;34.05;;;;;;;;;;5072050;28;20035;-63
2023/04/17 08:38:46;;;;;;;44.00;33.33;;;;;;;;;;5072521;28;20036;-62
2023/04/17 08:41:16;;;;;;;43.30;34.17;;;;;;;;;;5072808;28;20060;-64
2023/04/17 08:43:42;;;;;;;44.47;32.67;;;;;;;;;;5083752;28;20501;-62
2023/04/17 08:46:07;;;;;;;49.20;35.70;;;;;;;;;;5072909;28;20020;-63
2023/04/17 08:48:32;;;;;;;41.83;32.35;;;;;;;;;;5073022;28;20402;-63
2023/04/17 08:50:58;;;;;;;39.63;31.45;;;;;;;;;;5072800;28;20046;-63
2023/04/17 08:53:23;;;;;;;43.38;32.03;;;;;;;;;;5083686;28;20024;-63
2023/04/17 08:55:48;;;;;;;37.75;30.33;;;;;;;;;;5075988;28;20058;-63
2023/04/17 08:58:14;;;;;;;42.20;30.95;;;;;;;;;;5079799;28;20040;-63
2023/04/17 09:00:40;;;;;;;38.13;31.30;;;;;;;;;;5074337;28;20470;-63
2023/04/17 09:03:06;;;;;;;38.67;30.00;;;;;;;;;;5064614;28;20390;-63
2023/04/17 09:05:32;;;;;;;39.65;28.92;;;;;;;;;;5071837;28;20021;-63
2023/04/17 09:08:16;;;;;;;36.53;30.40;;;;;;;;;;5071986;28;20437;-63
2023/04/17 09:10:42;;;;;;;38.50;29.92;;;;;;;;;;5081749;28;20028;-63
2023/04/17 09:13:07;;;;;;;40.85;30.65;;;;;;;;;;5075219;28;20673;-63
2023/04/17 09:15:33;;;;;;;38.10;29.95;;;;;;;;;;5071736;28;20410;-63
2023/04/17 09:17:58;;;;;;;40.38;27.52;;;;;;;;;;5053056;28;20021;-63
2023/04/17 09:20:24;;;;;;;35.38;28.38;;;;;;;;;;5054562;28;20024;-63
2023/04/17 09:22:57;;;;;;;38.58;27.45;;;;;;;;;;5067331;28;20024;-63
2023/04/17 09:25:23;;;;;;;37.97;29.83;;;;;;;;;;5071638;28;20071;-63
2023/04/17 09:27:48;;;;;;;33.60;27.98;;;;;;;;;;5072178;28;20085;-63
2023/04/17 09:30:13;;;;;;;32.22;27.35;;;;;;;;;;5085395;28;20058;-63
2023/04/17 09:32:42;;;;;;;35.85;28.08;;;;;;;;;;5074827;28;20020;-62
2023/04/17 09:35:07;;;;;;;30.45;26.15;;;;;;;;;;5071410;28;20012;-63
2023/04/17 09:37:53;;;;;;;31.80;26.05;;;;;;;;;;5072217;28;20039;-63
2023/04/17 09:40:19;;;;;;;30.70;24.55;;;;;;;;;;5053211;28;20040;-63
2023/04/17 09:42:58;;;;;;;34.38;25.17;;;;;;;;;;5074114;28;20016;-63
2023/04/17 09:45:24;;;;;;;31.25;25.88;;;;;;;;;;5074307;28;20029;-63
2023/04/17 09:47:50;;;;;;;32.78;25.20;;;;;;;;;;5071195;28;20510;-63
2023/04/17 09:50:17;;;;;;;32.20;25.08;;;;;;;;;;5073119;28;20035;-64
2023/04/17 09:52:42;;;;;;;32.15;25.13;;;;;;;;;;5072614;28;20349;-63
2023/04/17 09:55:09;;;;;;;30.77;23.70;;;;;;;;;;5071701;28;20059;-62
2023/04/17 09:57:36;;;;;;;30.50;24.75;;;;;;;;;;5072789;28;20471;-63
2023/04/17 10:00:04;;;;;;;32.55;25.52;;;;;;;;;;5054524;28;20017;-63
2023/04/17 10:02:30;;;;;;;28.35;22.15;;;;;;;;;;5045249;28;20025;-63
2023/04/17 10:04:55;;;;;;;33.88;25.50;;;;;;;;;;5063843;28;20091;-63
2023/04/17 10:07:21;;;;;;;33.17;25.20;;;;;;;;;;5066397;28;20395;-63
2023/04/17 10:09:46;;;;;;;32.38;24.92;;;;;;;;;;5051441;28;20020;-63
2023/04/17 10:12:15;;;;;;;28.58;23.95;;;;;;;;;;5064174;28;20145;-63
2023/04/17 10:14:43;;;;;;;26.17;22.90;;;;;;;;;;5070720;28;20047;-64
2023/04/17 10:17:36;;;;;;;27.95;23.92;;;;;;;;;;5070966;28;20086;-63
2023/04/17 10:20:14;;;;;;;26.63;23.85;;;;;;;;;;5082843;28;20044;-66
2023/04/17 10:22:40;;;;;;;26.15;22.23;;;;;;;;;;5071002;28;20383;-63
2023/04/17 10:25:11;;;;;;;29.90;25.63;;;;;;;;;;5072227;28;20531;-63
2023/04/17 10:27:37;;;;;;;35.58;27.27;;;;;;;;;;5070909;28;20509;-63
2023/04/17 10:30:03;;;;;;;28.92;24.83;;;;;;;;;;5079119;28;20024;-63
2023/04/17 10:32:29;;;;;;;28.67;24.65;;;;;;;;;;5076887;28;20025;-63
2023/04/17 10:34:58;;;;;;;34.78;26.25;;;;;;;;;;5070801;28;20532;-63
2023/04/17 10:37:43;;;;;;;31.88;25.67;;;;;;;;;;5071334;28;20100;-63
2023/04/17 10:40:09;;;;;;;37.60;26.67;;;;;;;;;;5079793;28;20104;-63
2023/04/17 10:42:34;;;;;;;38.30;26.25;;;;;;;;;;5070781;28;20415;-63
2023/04/17 10:45:03;;;;;;;35.78;25.95;;;;;;;;;;5070716;28;20060;-63
2023/04/17 10:47:29;;;;;;;34.42;26.65;;;;;;;;;;5071099;28;20074;-63
2023/04/17 10:49:57;;;;;;;30.23;25.42;;;;;;;;;;5067570;28;20032;-63
2023/04/17 10:52:31;;;;;;;30.67;24.92;;;;;;;;;;5028765;28;20397;-63
2023/04/17 10:54:56;;;;;;;;;;;;;;;;;;5029668;28;20036;-63
2023/04/17 10:57:40;;;;;;;31.08;25.23;;;;;;;;;;5030932;28;19977;-63
2023/04/17 11:00:12;;;;;;;33.93;26.53;;;;;;;;;;5033551;28;20074;-63
2023/04/17 11:02:37;;;;;;;34.13;25.08;;;;;;;;;;5036019;28;20016;-63
2023/04/17 11:05:06;;;;;;;28.85;24.67;;;;;;;;;;5045774;28;20131;-63
2023/04/17 11:07:34;;;;;;;30.48;24.65;;;;;;;;;;5038852;28;20036;-63
2023/04/17 11:10:00;;;;;;;31.88;24.90;;;;;;;;;;5036184;28;20025;-63
2023/04/17 11:12:26;;;;;;;29.20;23.90;;;;;;;;;;5038652;28;20016;-63
2023/04/17 11:14:51;;;;;;;31.42;24.73;;;;;;;;;;5041882;28;20879;-65
2023/04/17 11:17:16;;;;;;;31.05;25.70;;;;;;;;;;5037473;28;20901;-63
2023/04/17 11:19:43;;;;;;;31.88;23.63;;;;;;;;;;5041314;28;20063;-63
2023/04/17 11:22:09;;;;;;;37.35;25.85;;;;;;;;;;5038845;28;20012;-65
2023/04/17 11:24:34;;;;;;;28.30;23.77;;;;;;;;;;5035250;28;20886;-64
2023/04/17 11:27:00;;;;;;;28.98;25.50;;;;;;;;;;5075689;28;20154;-63
2023/04/17 11:29:26;;;;;;;27.83;24.23;;;;;;;;;;5076283;28;20502;-63
2023/04/17 11:31:52;;;;;;;25.40;22.25;;;;;;;;;;5084873;28;20020;-65
2023/04/17 11:34:18;;;;;;;26.42;22.45;;;;;;;;;;5073656;28;20422;-63
2023/04/17 11:36:50;;;;;;;35.92;22.40;;;;;;;;;;5073609;28;20028;-63
2023/04/17 11:39:16;;;;;;;24.17;21.02;;;;;;;;;;5073871;28;20029;-63
2023/04/17 11:41:44;;;;;;;24.35;21.38;;;;;;;;;;5049352;28;20997;-63
2023/04/17 11:44:11;;;;;;;25.83;20.27;;;;;;;;;;5032746;28;20870;-63
2023/04/17 11:46:36;;;;;;;36.70;21.02;;;;;;;;;;5042359;28;20016;-63
2023/04/17 11:49:05;;;;;;;23.38;18.42;;;;;;;;;;5034609;28;20086;-63
2023/04/17 11:51:31;;;;;;;20.42;15.05;;;;;;;;;;5042074;28;20135;-63
2023/04/17 11:53:56;;;;;;;25.50;16.38;;;;;;;;;;5033805;28;20029;-64
2023/04/17 11:56:27;;;;;;;20.30;16.75;;;;;;;;;;5032028;28;20889;-63
2023/04/17 11:58:53;;;;;;;22.05;17.60;;;;;;;;;;5044930;28;20030;-64
2023/04/17 12:01:19;;;;;;;17.90;15.57;;;;;;;;;;5040476;28;20024;-64
2023/04/17 12:03:46;;;;;;;22.23;16.13;;;;;;;;;;5039453;28;20028;-63
2023/04/17 12:06:12;;;;;;;21.75;15.50;;;;;;;;;;5047241;28;20909;-63
2023/04/17 12:08:52;;;;;;;24.02;16.83;;;;;;;;;;5045896;28;20115;-64
2023/04/17 12:11:26;;;;;;;27.90;17.10;;;;;;;;;;5040912;28;20029;-64
2023/04/17 12:13:52;;;;;;;26.83;18.40;;;;;;;;;;5040046;28;20922;-63
2023/04/17 12:16:17;;;;;;;22.50;16.38;;;;;;;;;;5046600;28;20039;-63
2023/04/17 12:18:43;;;;;;;21.10;15.48;;;;;;;;;;5044488;28;20024;-63
2023/04/17 12:21:08;;;;;;;18.98;16.63;;;;;;;;;;5042159;28;20860;-63
2023/04/17 12:23:33;;;;;;;18.13;15.50;;;;;;;;;;5032333;28;20060;-63
2023/04/17 12:25:59;;;;;;;19.35;15.43;;;;;;;;;;5029592;28;20078;-64
2023/04/17 12:28:24;;;;;;;18.42;14.93;;;;;;;;;;5026203;28;20039;-63
2023/04/17 12:30:49;;;;;;;21.88;15.30;;;;;;;;;;5033854;28;20026;-64
2023/04/17 12:33:15;;;;;;;17.52;13.95;;;;;;;;;;5038268;28;20035;-64
2023/04/17 12:35:41;;;;;;;18.75;14.70;;;;;;;;;;5043284;28;20024;-64
2023/04/17 12:38:06;;;;;;;18.77;14.43;;;;;;;;;;5033635;28;20127;-63
2023/04/17 12:40:31;;;;;;;20.38;13.82;;;;;;;;;;5035247;28;20727;-63
2023/04/17 12:42:57;;;;;;;17.33;14.55;;;;;;;;;;5070857;28;20125;-63
2023/04/17 12:45:22;;;;;;;17.23;13.67;;;;;;;;;;5033555;28;20024;-64
2023/04/17 12:47:47;;;;;;;15.70;12.27;;;;;;;;;;5037920;28;20275;-63
2023/04/17 12:50:13;;;;;;;17.38;11.23;;;;;;;;;;5062399;28;20028;-63
2023/04/17 12:52:39;;;;;;;13.20;11.40;;;;;;;;;;5072462;28;20048;-63
2023/04/17 12:55:06;;;;;;;15.25;12.68;;;;;;;;;;5073029;28;20024;-63
2023/04/17 12:57:31;;;;;;;17.75;15.05;;;;;;;;;;5072182;28;20013;-63
2023/04/17 12:59:57;;;;;;;18.13;15.10;;;;;;;;;;5082558;28;20115;-64
2023/04/17 13:02:22;;;;;;;15.90;13.10;;;;;;;;;;5041674;28;20027;-64
2023/04/17 13:04:50;;;;;;;17.80;13.65;;;;;;;;;;5029088;28;20930;-64
2023/04/17 13:07:16;;;;;;;13.85;11.82;;;;;;;;;;5033711;28;20020;-64
2023/04/17 13:09:42;;;;;;;14.23;12.68;;;;;;;;;;5043761;28;20461;-63
2023/04/17 13:12:07;;;;;;;14.32;11.75;;;;;;;;;;5037732;28;20032;-64
2023/04/17 13:14:32;;;;;;;16.25;11.85;;;;;;;;;;5031850;28;20036;-63
2023/04/17 13:16:58;;;;;;;14.95;11.18;;;;;;;;;;5042722;28;20023;-64
2023/04/17 13:19:23;;;;;;;15.93;12.85;;;;;;;;;;5043301;28;20573;-63
2023/04/17 13:21:52;;;;;;;17.10;13.77;;;;;;;;;;5032380;28;20019;-63
2023/04/17 13:24:17;;;;;;;18.45;13.27;;;;;;;;;;5040565;28;20081;-63
2023/04/17 13:26:43;;;;;;;14.40;12.60;;;;;;;;;;5033776;28;20025;-64
2023/04/17 13:29:08;;;;;;;15.20;12.63;;;;;;;;;;5050410;28;20754;-63
2023/04/17 13:31:33;;;;;;;16.83;12.43;;;;;;;;;;5085020;28;20082;-64
2023/04/17 13:33:59;;;;;;;15.60;12.48;;;;;;;;;;5084870;28;20106;-64
2023/04/17 13:36:24;;;;;;;17.00;12.65;;;;;;;;;;5071575;28;20063;-63
2023/04/17 13:38:50;;;;;;;14.98;12.75;;;;;;;;;;5077936;28;20023;-64
2023/04/17 13:41:15;;;;;;;15.40;11.45;;;;;;;;;;5071245;28;20360;-64
2023/04/17 13:43:40;;;;;;;18.97;12.77;;;;;;;;;;5053865;28;20103;-63
2023/04/17 13:46:07;;;;;;;14.00;12.07;;;;;;;;;;5071242;28;20342;-64
2023/04/17 13:48:33;;;;;;;13.90;11.30;;;;;;;;;;5051337;28;20085;-64
2023/04/17 13:50:58;;;;;;;16.40;11.48;;;;;;;;;;5045130;28;20012;-63
2023/04/17 13:53:24;;;;;;;12.73;10.93;;;;;;;;;;5044141;28;20032;-64
2023/04/17 13:55:50;;;;;;;12.97;11.07;;;;;;;;;;5077017;28;20036;-64
2023/04/17 13:58:15;;;;;;;12.50;10.65;;;;;;;;;;5067646;28;20270;-64
2023/04/17 14:00:40;;;;;;;12.70;10.07;;;;;;;;;;5071838;28;20426;-64
2023/04/17 14:03:05;;;;;;;12.93;10.23;;;;;;;;;;5067314;28;20282;-64
2023/04/17 14:05:31;;;;;;;12.18;9.60;;;;;;;;;;5042806;28;20265;-64
2023/04/17 14:07:56;;;;;;;12.25;10.30;;;;;;;;;;5044438;28;20031;-64
2023/04/17 14:10:21;;;;;;;13.68;9.27;;;;;;;;;;5035790;28;20969;-64
2023/04/17 14:12:46;;;;;;;15.20;10.02;;;;;;;;;;5041773;28;20131;-64
2023/04/17 14:15:12;;;;;;;12.63;10.02;;;;;;;;;;5038970;28;20891;-63